Station Historical Data
 
Daily Summary for January 25, 2020 Units:  English    Metric   Both
Next Day »
Daily Weekly Monthly Yearly Custom
  Current: High: Low: Average:
Temperature: 56.6 °F 59.1 °F 45.4 °F 49.4 °F
Dew Point: 44.99 °F 48.08 °F 38.94 °F 42.3 °F
Humidity: 65% 88% 49% 77%
Wind Speed: 0mph 6mph 0mph 1mph
Wind Gust: 1mph 15mph - -
WindCalm - - SE
Pressure: 30.16 in 30.22 in 30.16 in -
Precipitation: 0 in      
Historical Graphs
 
 
Tabular Data for January 25, 2020
Time Temperature Dew Point Pressure Wind Wind Speed Wind Gust Humidity Rainfall Rate (Hourly) solar Conditions
00:00 47.1 °F 43.44 °F 30.22 in Calm   2 mph 87% 0 in 0.00 W/m2
00:05 47.1 °F 43.14 °F 30.22 in Calm     86% 0 in 0.00 W/m2
00:10 47.2 °F 43.54 °F 30.22 in Calm     87% 0 in 0.00 W/m2
00:15 47.2 °F 43.54 °F 30.21 in Calm     87% 0 in 0.00 W/m2
00:20 47.3 °F 43.93 °F 30.22 in East 1 mph 1 mph 88% 0 in 0.00 W/m2
00:25 47.3 °F 43.93 °F 30.21 in Calm     88% 0 in 0.00 W/m2
00:30 47.2 °F 43.83 °F 30.21 in Calm     88% 0 in 0.00 W/m2
00:35 47.2 °F 43.83 °F 30.22 in Calm   4 mph 88% 0 in 0.00 W/m2
00:40 47.2 °F 43.54 °F 30.22 in Calm   2 mph 87% 0 in 0.00 W/m2
00:45 47.1 °F 43.44 °F 30.21 in Calm   5 mph 87% 0 in 0.00 W/m2
00:50 47 °F 43.34 °F 30.21 in East 4 mph 6 mph 87% 0 in 0.00 W/m2
00:55 47 °F 43.34 °F 30.20 in ESE 1 mph 7 mph 87% 0 in 0.00 W/m2
01:00 47 °F 43.34 °F 30.21 in Calm   5 mph 87% 0 in 0.00 W/m2
01:05 46.9 °F 43.24 °F 30.21 in East 4 mph 7 mph 87% 0 in 0.00 W/m2
01:10 46.9 °F 43.24 °F 30.20 in East 5 mph 8 mph 87% 0 in 0.00 W/m2
01:15 46.9 °F 42.94 °F 30.20 in Calm   6 mph 86% 0 in 0.00 W/m2
01:20 46.9 °F 42.94 °F 30.20 in ESE 4 mph 9 mph 86% 0 in 0.00 W/m2
01:25 46.8 °F 42.84 °F 30.21 in ESE 5 mph 6 mph 86% 0 in 0.00 W/m2
01:30 46.8 °F 42.54 °F 30.21 in Calm   5 mph 85% 0 in 0.00 W/m2
01:35 46.8 °F 42.54 °F 30.20 in Calm   7 mph 85% 0 in 0.00 W/m2
01:40 46.8 °F 42.54 °F 30.21 in Calm   4 mph 85% 0 in 0.00 W/m2
01:45 46.8 °F 42.54 °F 30.21 in Calm   5 mph 85% 0 in 0.00 W/m2
01:50 46.9 °F 42.63 °F 30.22 in Calm   5 mph 85% 0 in 0.00 W/m2
01:55 46.9 °F 42.63 °F 30.22 in Calm   5 mph 85% 0 in 0.00 W/m2
02:00 46.9 °F 42.63 °F 30.22 in Calm   5 mph 85% 0 in 0.00 W/m2
02:05 46.9 °F 42.63 °F 30.22 in ESE 1 mph 4 mph 85% 0 in 0.00 W/m2
02:10 46.9 °F 42.63 °F 30.22 in ESE 1 mph 4 mph 85% 0 in 0.00 W/m2
02:15 46.9 °F 42.63 °F 30.22 in ESE 1 mph 1 mph 85% 0 in 0.00 W/m2
02:20 46.9 °F 42.63 °F 30.22 in Calm   2 mph 85% 0 in 0.00 W/m2
02:25 46.9 °F 42.63 °F 30.22 in ESE 1 mph 2 mph 85% 0 in 0.00 W/m2
02:30 46.9 °F 42.63 °F 30.22 in Calm   4 mph 85% 0 in 0.00 W/m2
02:35 46.9 °F 42.63 °F 30.21 in Calm   5 mph 85% 0 in 0.00 W/m2
02:40 46.9 °F 42.94 °F 30.22 in Calm   5 mph 86% 0 in 0.00 W/m2
02:45 46.8 °F 42.54 °F 30.21 in Calm   4 mph 85% 0 in 0.00 W/m2
02:50 46.8 °F 42.54 °F 30.22 in Calm   6 mph 85% 0 in 0.00 W/m2
02:55 46.8 °F 42.54 °F 30.22 in Calm   5 mph 85% 0 in 0.00 W/m2
03:00 46.8 °F 42.54 °F 30.22 in ESE 2 mph 6 mph 85% 0 in 0.00 W/m2
03:05 46.8 °F 42.54 °F 30.21 in ESE 2 mph 7 mph 85% 0 in 0.00 W/m2
03:10 46.8 °F 42.54 °F 30.21 in Calm   5 mph 85% 0 in 0.00 W/m2
03:15 46.8 °F 42.54 °F 30.20 in Calm   5 mph 85% 0 in 0.00 W/m2
03:20 46.8 °F 42.54 °F 30.20 in ESE 4 mph 7 mph 85% 0 in 0.00 W/m2
03:25 46.7 °F 42.44 °F 30.20 in ESE 1 mph 9 mph 85% 0 in 0.00 W/m2
03:30 46.6 °F 42.34 °F 30.20 in ESE 2 mph 9 mph 85% 0 in 0.00 W/m2
03:35 46.5 °F 42.24 °F 30.20 in ESE 4 mph 8 mph 85% 0 in 0.00 W/m2
03:40 46.4 °F 42.14 °F 30.19 in ESE 5 mph 7 mph 85% 0 in 0.00 W/m2
03:45 46.2 °F 41.95 °F 30.20 in ESE 6 mph 11 mph 85% 0 in 0.00 W/m2
03:50 46 °F 41.75 °F 30.19 in Calm   13 mph 85% 0 in 0.00 W/m2
03:55 45.9 °F 41.65 °F 30.19 in East 2 mph 8 mph 85% 0 in 0.00 W/m2
04:00 45.8 °F 41.25 °F 30.19 in ESE 1 mph 1 mph 84% 0 in 0.00 W/m2
04:05 45.8 °F 41.25 °F 30.19 in ESE 1 mph 1 mph 84% 0 in 0.00 W/m2
04:10 45.8 °F 41.55 °F 30.19 in ESE 5 mph 6 mph 85% 0 in 0.00 W/m2
04:15 45.8 °F 41.55 °F 30.19 in ESE 2 mph 8 mph 85% 0 in 0.00 W/m2
04:20 45.8 °F 41.55 °F 30.19 in ESE 4 mph 5 mph 85% 0 in 0.00 W/m2
04:25 45.9 °F 41.35 °F 30.19 in Calm   6 mph 84% 0 in 0.00 W/m2
04:30 45.9 °F 41.35 °F 30.19 in ESE 1 mph 5 mph 84% 0 in 0.00 W/m2
04:35 46 °F 41.44 °F 30.19 in Calm   4 mph 84% 0 in 0.00 W/m2
04:40 46.1 °F 41.23 °F 30.20 in Calm   2 mph 83% 0 in 0.00 W/m2
04:45 46.2 °F 41.64 °F 30.20 in Calm   2 mph 84% 0 in 0.00 W/m2
04:50 46.3 °F 41.74 °F 30.19 in Calm   2 mph 84% 0 in 0.00 W/m2
04:55 46.3 °F 42.05 °F 30.19 in ESE 1 mph 2 mph 85% 0 in 0.00 W/m2
05:00 46.3 °F 41.74 °F 30.18 in ESE 5 mph 6 mph 84% 0 in 0.00 W/m2
05:05 46.3 °F 41.43 °F 30.18 in Calm   6 mph 83% 0 in 0.00 W/m2
05:10 46.3 °F 41.43 °F 30.19 in Calm   5 mph 83% 0 in 0.00 W/m2
05:15 46.3 °F 41.43 °F 30.18 in Calm   7 mph 83% 0 in 0.00 W/m2
05:20 46.3 °F 41.74 °F 30.17 in ESE 4 mph 11 mph 84% 0 in 0.00 W/m2
05:25 46.2 °F 41.33 °F 30.17 in ESE 1 mph 7 mph 83% 0 in 0.00 W/m2
05:30 46.2 °F 41.33 °F 30.17 in ESE 2 mph 6 mph 83% 0 in 0.00 W/m2
05:35 46.1 °F 41.23 °F 30.17 in ESE 1 mph 7 mph 83% 0 in 0.00 W/m2
05:40 46 °F 41.14 °F 30.17 in Calm   7 mph 83% 0 in 0.00 W/m2
05:45 46 °F 41.14 °F 30.17 in ESE 1 mph 7 mph 83% 0 in 0.00 W/m2
05:50 46 °F 40.82 °F 30.17 in East 1 mph 8 mph 82% 0 in 0.00 W/m2
05:55 45.9 °F 40.72 °F 30.17 in Calm   5 mph 82% 0 in 0.00 W/m2
06:00 45.9 °F 41.04 °F 30.17 in ESE 1 mph 6 mph 83% 0 in 0.00 W/m2
06:05 45.9 °F 40.72 °F 30.17 in ESE 2 mph 8 mph 82% 0 in 0.00 W/m2
06:10 45.9 °F 40.41 °F 30.17 in ESE 2 mph 7 mph 81% 0 in 0.00 W/m2
06:15 45.8 °F 39.99 °F 30.17 in Calm   9 mph 80% 0 in 0.00 W/m2
06:20 45.7 °F 39.89 °F 30.17 in Calm   7 mph 80% 0 in 0.00 W/m2
06:25 45.7 °F 39.57 °F 30.18 in Calm   7 mph 79% 0 in 0.00 W/m2
06:30 45.6 °F 40.43 °F 30.18 in Calm   4 mph 82% 0 in 0.00 W/m2
06:35 45.5 °F 39.7 °F 30.18 in Calm     80% 0 in 0.00 W/m2
06:40 45.4 °F 39.28 °F 30.19 in Calm   1 mph 79% 0 in 0.00 W/m2
06:45 45.5 °F 39.05 °F 30.19 in Calm   2 mph 78% 0 in 0.00 W/m2
06:50 45.5 °F 39.7 °F 30.19 in Calm   2 mph 80% 0 in 0.00 W/m2
06:55 45.6 °F 40.12 °F 30.19 in Calm   2 mph 81% 0 in 0.00 W/m2
07:00 45.6 °F 40.43 °F 30.19 in Calm     82% 0 in 0.00 W/m2
07:05 45.6 °F 39.8 °F 30.20 in Calm   1 mph 80% 0 in 0.00 W/m2
07:10 45.7 °F 39.89 °F 30.20 in Calm   1 mph 80% 0 in 0.00 W/m2
07:15 45.8 °F 40.63 °F 30.20 in Calm     82% 0 in 0.00 W/m2
07:20 45.8 °F 40.63 °F 30.21 in Calm     82% 0 in 5.00 W/m2
07:25 45.8 °F 40.31 °F 30.20 in Calm     81% 0 in 7.00 W/m2
07:30 45.8 °F 40.31 °F 30.20 in Calm     81% 0 in 11.00 W/m2
07:35 45.8 °F 40.63 °F 30.20 in Calm     82% 0 in 18.00 W/m2
07:40 45.7 °F 40.21 °F 30.21 in Calm     81% 0 in 26.00 W/m2
07:45 45.7 °F 40.21 °F 30.21 in Calm     81% 0 in 35.00 W/m2
07:50 45.6 °F 40.12 °F 30.21 in Calm     81% 0 in 44.00 W/m2
07:55 45.6 °F 40.12 °F 30.21 in Calm     81% 0 in 93.00 W/m2
08:00 45.6 °F 40.43 °F 30.21 in Calm     82% 0 in 116.00 W/m2
08:05 45.7 °F 40.84 °F 30.21 in Calm     83% 0 in 137.00 W/m2
08:10 45.8 °F 40.94 °F 30.21 in ESE 5 mph 5 mph 83% 0 in 163.00 W/m2
08:15 46 °F 41.14 °F 30.21 in ESE 6 mph 6 mph 83% 0 in 172.00 W/m2
08:20 46.2 °F 41.02 °F 30.21 in ESE 1 mph 7 mph 82% 0 in 179.00 W/m2
08:25 46.4 °F 41.21 °F 30.21 in ESE 2 mph 7 mph 82% 0 in 171.00 W/m2
08:30 46.5 °F 41.31 °F 30.21 in Calm   7 mph 82% 0 in 163.00 W/m2
08:35 46.6 °F 41.41 °F 30.21 in Calm   7 mph 82% 0 in 186.00 W/m2
08:40 46.7 °F 41.82 °F 30.21 in Calm   8 mph 83% 0 in 202.00 W/m2
08:45 46.8 °F 41.92 °F 30.20 in ESE 4 mph 6 mph 83% 0 in 214.00 W/m2
08:50 46.8 °F 41.92 °F 30.21 in Calm   7 mph 83% 0 in 230.00 W/m2
08:55 46.8 °F 41.6 °F 30.21 in Calm   11 mph 82% 0 in 239.00 W/m2
09:00 46.9 °F 41.7 °F 30.20 in East 1 mph 12 mph 82% 0 in 250.00 W/m2
09:05 47.1 °F 41.9 °F 30.20 in East 6 mph 9 mph 82% 0 in 267.00 W/m2
09:10 47.3 °F 40.8 °F 30.20 in Calm   8 mph 78% 0 in 274.00 W/m2
09:15 47.6 °F 41.42 °F 30.19 in ESE 2 mph 15 mph 79% 0 in 290.00 W/m2
09:20 47.9 °F 41.71 °F 30.20 in ESE 2 mph 13 mph 79% 0 in 306.00 W/m2
09:25 48.2 °F 42.65 °F 30.20 in ESE 4 mph 7 mph 81% 0 in 318.00 W/m2
09:30 48.5 °F 41.29 °F 30.20 in Calm   11 mph 76% 0 in 339.00 W/m2
09:35 48.7 °F 41.14 °F 30.20 in Calm   6 mph 75% 0 in 352.00 W/m2
09:40 49 °F 41.09 °F 30.20 in ESE 2 mph 9 mph 74% 0 in 320.00 W/m2
09:45 49.5 °F 40.86 °F 30.20 in Calm   9 mph 72% 0 in 332.00 W/m2
09:50 49.8 °F 41.51 °F 30.20 in Calm   7 mph 73% 0 in 381.00 W/m2
09:55 50.2 °F 41.89 °F 30.20 in Calm   4 mph 73% 0 in 381.00 W/m2
10:00 50.6 °F 42.98 °F 30.20 in Calm   1 mph 75% 0 in 371.00 W/m2
10:05 50.9 °F 42.57 °F 30.21 in Calm     73% 0 in 425.00 W/m2
10:10 51.4 °F 43.05 °F 30.21 in Calm     73% 0 in 404.00 W/m2
10:15 51.9 °F 43.17 °F 30.21 in Calm     72% 0 in 366.00 W/m2
10:20 52.4 °F 42.54 °F 30.21 in Calm   2 mph 69% 0 in 448.00 W/m2
10:25 52.8 °F 42.92 °F 30.22 in Calm   1 mph 69% 0 in 427.00 W/m2
10:30 53.2 °F 42.15 °F 30.22 in Calm   4 mph 66% 0 in 410.00 W/m2
10:35 53.6 °F 42.13 °F 30.22 in Calm   4 mph 65% 0 in 452.00 W/m2
10:40 54.2 °F 42.3 °F 30.22 in Calm   2 mph 64% 0 in 457.00 W/m2
10:45 54.4 °F 43.29 °F 30.22 in ESE 2 mph 2 mph 66% 0 in 464.00 W/m2
10:50 54.8 °F 42.87 °F 30.22 in Calm   2 mph 64% 0 in 471.00 W/m2
10:55 55 °F 42.24 °F 30.22 in ESE 2 mph 2 mph 62% 0 in 478.00 W/m2
11:00 55.4 °F 40.44 °F 30.22 in Calm   4 mph 57% 0 in 483.00 W/m2
11:05 55.8 °F 38.94 °F 30.22 in ESE 2 mph 4 mph 53% 0 in 492.00 W/m2
11:10 56.3 °F 39.41 °F 30.22 in Calm   5 mph 53% 0 in 503.00 W/m2
11:15 56.7 °F 39.29 °F 30.21 in ESE 4 mph 5 mph 52% 0 in 512.00 W/m2
11:20 57.3 °F 39.84 °F 30.21 in ESE 1 mph 5 mph 52% 0 in 517.00 W/m2
11:25 57.7 °F 39.72 °F 30.21 in East 1 mph 7 mph 51% 0 in 524.00 W/m2
11:30 58 °F 38.97 °F 30.20 in WNW 5 mph 6 mph 49% 0 in 527.00 W/m2
11:35 58.2 °F 39.67 °F 30.20 in WNW 4 mph 6 mph 50% 0 in 529.00 W/m2
11:40 58.2 °F 42.13 °F 30.20 in Calm   6 mph 55% 0 in 548.00 W/m2
11:45 58.2 °F 42.13 °F 30.20 in Calm   7 mph 55% 0 in 527.00 W/m2
11:50 58.3 °F 42.69 °F 30.20 in Calm   6 mph 56% 0 in 480.00 W/m2
11:55 58.3 °F 43.15 °F 30.20 in WNW 3 mph 5 mph 57% 0 in 550.00 W/m2
12:00 58.4 °F 44.59 °F 30.20 in Calm   8 mph 60% 0 in 580.00 W/m2
12:05 58.3 °F 45.35 °F 30.19 in Calm   8 mph 62% 0 in 492.00 W/m2
12:10 58.1 °F 46 °F 30.19 in Calm   5 mph 64% 0 in 570.00 W/m2
12:15 58.1 °F 46.41 °F 30.19 in Calm   5 mph 65% 0 in 557.00 W/m2
12:20 58.2 °F 46.91 °F 30.19 in Calm   4 mph 66% 0 in 568.00 W/m2
12:25 58.4 °F 47.1 °F 30.18 in Calm   5 mph 66% 0 in 557.00 W/m2
12:30 58.6 °F 48.08 °F 30.18 in Calm   4 mph 68% 0 in 568.00 W/m2
12:35 58.6 °F 46.89 °F 30.18 in WNW 1 mph 8 mph 65% 0 in 592.00 W/m2
12:40 58.6 °F 47.29 °F 30.17 in WNW 5 mph 5 mph 66% 0 in 510.00 W/m2
12:45 58.7 °F 47.79 °F 30.17 in WNW 1 mph 5 mph 67% 0 in 677.00 W/m2
12:50 58.9 °F 47.58 °F 30.17 in WNW 3 mph 5 mph 66% 0 in 570.00 W/m2
12:55 59.1 °F 47.77 °F 30.17 in WNW 1 mph 1 mph 66% 0 in 362.00 W/m2
13:00 59.1 °F 46.95 °F 30.16 in WNW 2 mph 5 mph 64% 0 in 527.00 W/m2
13:05 59 °F 46.85 °F 30.16 in WNW 1 mph 5 mph 64% 0 in 526.00 W/m2
13:10 58.7 °F 46.57 °F 30.16 in WNW 1 mph 4 mph 64% 0 in 306.00 W/m2
13:15 58.5 °F 46.79 °F 30.16 in Calm   3 mph 65% 0 in 297.00 W/m2
13:20 58.1 °F 46.41 °F 30.16 in WNW 4 mph 5 mph 65% 0 in 295.00 W/m2
13:25 57.8 °F 46.93 °F 30.16 in WNW 1 mph 5 mph 67% 0 in 206.00 W/m2
13:30 57.6 °F 45.53 °F 30.16 in WNW 2 mph 2 mph 64% 0 in 200.00 W/m2
13:35 57.3 °F 45.24 °F 30.16 in Calm   3 mph 64% 0 in 163.00 W/m2
13:40 57 °F 44.96 °F 30.16 in Calm   4 mph 64% 0 in 199.00 W/m2
13:45 56.7 °F 44.67 °F 30.16 in WNW 1 mph 3 mph 64% 0 in 197.00 W/m2
13:50 56.6 °F 44.99 °F 30.16 in Calm   1 mph 65% 0 in 200.00 W/m2
Foresthill Weather
 WU-history PHP script courtesy of   Juneau County Weather.
powered by Cumulus v1.9.3 (1059)
Ambient Weather VWS v14.00
Top Website Map Copyright © 2007 - 2020 Foresthillweather.com Never base important decisions on this or any weather information obtained from the Internet